Time;durP1;ratioP1;P1;durP2;ratioP2;P2;SDS_P1;SDS_P2;PMS_P1;PMS_P2;Temp;Humidity;BMP_temperature;BMP_pressure;BME280_temperature;BME280_humidity;BME280_pressure;Samples;Min_cycle;Max_cycle;Signal;HPM_P1;HPM_P2
2023/04/19 00:00:20;;;;;;;18.08;10.52;;;;;;;;;;5037485;28;20048;-79
2023/04/19 00:02:49;;;;;;;18.15;10.13;;;;;;;;;;5027543;28;20512;-79
2023/04/19 00:05:17;;;;;;;20.73;10.52;;;;;;;;;;5054152;28;20044;-79
2023/04/19 00:07:43;;;;;;;16.67;10.13;;;;;;;;;;5054665;28;20537;-79
2023/04/19 00:10:09;;;;;;;18.13;10.63;;;;;;;;;;5053994;28;20076;-79
2023/04/19 00:12:35;;;;;;;19.38;10.93;;;;;;;;;;5052902;28;20056;-79
2023/04/19 00:15:02;;;;;;;18.23;10.40;;;;;;;;;;5054245;28;20041;-79
2023/04/19 00:17:28;;;;;;;16.88;10.75;;;;;;;;;;5052209;28;20037;-79
2023/04/19 00:19:55;;;;;;;16.52;10.05;;;;;;;;;;5053079;28;20048;-79
2023/04/19 00:22:21;;;;;;;18.17;10.55;;;;;;;;;;5053035;28;20490;-79
2023/04/19 00:24:47;;;;;;;16.67;10.35;;;;;;;;;;5052678;28;20343;-79
2023/04/19 00:27:13;;;;;;;16.35;9.93;;;;;;;;;;5053166;28;20448;-79
2023/04/19 00:29:39;;;;;;;18.38;9.70;;;;;;;;;;5053889;28;20045;-79
2023/04/19 00:32:06;;;;;;;16.08;9.05;;;;;;;;;;5052913;28;20094;-79
2023/04/19 00:34:32;;;;;;;15.68;9.52;;;;;;;;;;5052438;28;20474;-79
2023/04/19 00:36:58;;;;;;;15.32;9.43;;;;;;;;;;5053037;28;20405;-79
2023/04/19 00:39:24;;;;;;;15.75;9.73;;;;;;;;;;5036144;28;20474;-79
2023/04/19 00:41:51;;;;;;;14.30;9.52;;;;;;;;;;5053442;28;20548;-79
2023/04/19 00:44:17;;;;;;;16.67;10.13;;;;;;;;;;5053649;28;20049;-79
2023/04/19 00:46:44;;;;;;;15.77;9.45;;;;;;;;;;5052214;28;20055;-79
2023/04/19 00:49:10;;;;;;;16.25;9.45;;;;;;;;;;5053569;28;20044;-79
2023/04/19 00:51:36;;;;;;;15.73;9.63;;;;;;;;;;5052030;28;20043;-79
2023/04/19 00:54:03;;;;;;;16.02;9.88;;;;;;;;;;5053552;28;20098;-79
2023/04/19 00:56:29;;;;;;;16.30;9.00;;;;;;;;;;5052153;28;20055;-79
2023/04/19 00:58:56;;;;;;;15.65;9.35;;;;;;;;;;5058975;28;20075;-79
2023/04/19 01:01:22;;;;;;;16.88;9.50;;;;;;;;;;5053429;28;20502;-79
2023/04/19 01:03:48;;;;;;;15.05;9.25;;;;;;;;;;5033477;28;20120;-79
2023/04/19 01:06:15;;;;;;;14.25;9.20;;;;;;;;;;5053569;28;20071;-79
2023/04/19 01:08:41;;;;;;;14.43;9.70;;;;;;;;;;5053111;28;20086;-79
2023/04/19 01:11:07;;;;;;;15.75;9.57;;;;;;;;;;5052248;28;20468;-79
2023/04/19 01:13:33;;;;;;;16.42;9.52;;;;;;;;;;5052649;28;20049;-79
2023/04/19 01:16:00;;;;;;;16.35;9.07;;;;;;;;;;5068400;28;20033;-79
2023/04/19 01:18:31;;;;;;;14.75;9.02;;;;;;;;;;5053210;28;20095;-79
2023/04/19 01:20:57;;;;;;;12.75;8.18;;;;;;;;;;5052894;28;20162;-79
2023/04/19 01:23:24;;;;;;;13.85;8.48;;;;;;;;;;5053307;28;20053;-79
2023/04/19 01:25:51;;;;;;;15.95;9.23;;;;;;;;;;5051761;28;20048;-79
2023/04/19 01:28:17;;;;;;;17.13;9.05;;;;;;;;;;5051931;28;20056;-79
2023/04/19 01:30:43;;;;;;;13.82;9.10;;;;;;;;;;5053157;28;20075;-79
2023/04/19 01:33:09;;;;;;;14.43;8.82;;;;;;;;;;5052173;28;20126;-79
2023/04/19 01:35:35;;;;;;;15.38;9.43;;;;;;;;;;5051452;28;20032;-79
2023/04/19 01:38:01;;;;;;;17.55;9.45;;;;;;;;;;5035200;28;20074;-79
2023/04/19 01:40:27;;;;;;;13.50;8.45;;;;;;;;;;5051973;28;20489;-79
2023/04/19 01:42:53;;;;;;;12.63;8.35;;;;;;;;;;5051318;28;20436;-79
2023/04/19 01:45:19;;;;;;;12.95;8.23;;;;;;;;;;5051391;28;20127;-79
2023/04/19 01:47:45;;;;;;;16.25;8.43;;;;;;;;;;5067785;28;20045;-79
2023/04/19 01:50:11;;;;;;;13.32;8.38;;;;;;;;;;5052694;28;20040;-78
2023/04/19 01:52:38;;;;;;;14.15;8.25;;;;;;;;;;5051299;28;20037;-79
2023/04/19 01:55:04;;;;;;;12.60;8.48;;;;;;;;;;5068236;28;20186;-79
2023/04/19 01:57:30;;;;;;;14.15;8.63;;;;;;;;;;5050734;28;20119;-79
2023/04/19 01:59:56;;;;;;;13.88;8.23;;;;;;;;;;5050528;28;20110;-79
2023/04/19 02:02:22;;;;;;;14.88;8.63;;;;;;;;;;5047927;28;20474;-79
2023/04/19 02:04:48;;;;;;;15.05;8.20;;;;;;;;;;5051589;28;20033;-79
2023/04/19 02:07:15;;;;;;;17.98;9.32;;;;;;;;;;5049876;28;20044;-79
2023/04/19 02:09:41;;;;;;;14.10;8.23;;;;;;;;;;5067005;28;20167;-79
2023/04/19 02:12:07;;;;;;;15.82;8.13;;;;;;;;;;5052125;28;20481;-79
2023/04/19 02:14:33;;;;;;;17.35;8.45;;;;;;;;;;5050921;28;20060;-79
2023/04/19 02:16:59;;;;;;;14.77;8.25;;;;;;;;;;5045152;28;20051;-79
2023/04/19 02:19:25;;;;;;;16.88;8.57;;;;;;;;;;5052375;28;20053;-79
2023/04/19 02:21:52;;;;;;;11.45;7.50;;;;;;;;;;5034019;28;20103;-79
2023/04/19 02:24:18;;;;;;;15.02;7.78;;;;;;;;;;5052207;28;20121;-79
2023/04/19 02:26:44;;;;;;;15.52;7.60;;;;;;;;;;5050407;28;20036;-79
2023/04/19 02:29:10;;;;;;;14.10;7.97;;;;;;;;;;5051374;28;20037;-79
2023/04/19 02:31:36;;;;;;;13.10;7.57;;;;;;;;;;5051116;28;20052;-79
2023/04/19 02:34:03;;;;;;;18.42;8.25;;;;;;;;;;5050541;28;20053;-79
2023/04/19 02:36:29;;;;;;;12.40;7.68;;;;;;;;;;5051918;28;20048;-79
2023/04/19 02:38:55;;;;;;;13.57;7.38;;;;;;;;;;5050480;28;20045;-79
2023/04/19 02:41:21;;;;;;;11.02;7.20;;;;;;;;;;5050728;28;20048;-79
2023/04/19 02:43:47;;;;;;;17.70;7.63;;;;;;;;;;5091732;28;20037;-79
2023/04/19 02:46:13;;;;;;;12.02;7.32;;;;;;;;;;5070890;28;20044;-79
2023/04/19 02:48:39;;;;;;;14.50;7.93;;;;;;;;;;5064729;28;20040;-79
2023/04/19 02:51:06;;;;;;;15.65;8.57;;;;;;;;;;5052955;28;20083;-79
2023/04/19 02:53:32;;;;;;;12.73;8.05;;;;;;;;;;5070958;28;20120;-79
2023/04/19 02:55:58;;;;;;;15.10;9.05;;;;;;;;;;5070372;28;20051;-79
2023/04/19 02:58:25;;;;;;;17.65;8.68;;;;;;;;;;5065005;28;20055;-79
2023/04/19 03:00:51;;;;;;;13.55;8.38;;;;;;;;;;5057892;28;20056;-79
2023/04/19 03:03:17;;;;;;;12.52;7.63;;;;;;;;;;5050260;28;20140;-79
2023/04/19 03:05:43;;;;;;;15.60;8.77;;;;;;;;;;5050425;28;20083;-79
2023/04/19 03:08:10;;;;;;;14.20;8.38;;;;;;;;;;5051606;28;20067;-79
2023/04/19 03:10:36;;;;;;;13.23;8.18;;;;;;;;;;5054110;28;20040;-79
2023/04/19 03:13:02;;;;;;;15.68;8.88;;;;;;;;;;5055590;28;20094;-79
2023/04/19 03:15:28;;;;;;;16.73;9.52;;;;;;;;;;5055846;28;20047;-79
2023/04/19 03:17:54;;;;;;;16.42;9.35;;;;;;;;;;5048558;28;20513;-79
2023/04/19 03:20:20;;;;;;;16.98;9.38;;;;;;;;;;5061697;28;20071;-79
2023/04/19 03:22:46;;;;;;;15.50;9.93;;;;;;;;;;5075541;28;20045;-79
2023/04/19 03:25:12;;;;;;;14.23;9.15;;;;;;;;;;5073927;28;20036;-79
2023/04/19 03:27:39;;;;;;;14.93;8.75;;;;;;;;;;5057569;28;20036;-79
2023/04/19 03:30:05;;;;;;;13.98;8.82;;;;;;;;;;5073916;28;20086;-78
2023/04/19 03:32:31;;;;;;;14.98;9.25;;;;;;;;;;5057519;28;20045;-79
2023/04/19 03:34:57;;;;;;;17.63;9.93;;;;;;;;;;5055139;28;20051;-79
2023/04/19 03:37:23;;;;;;;17.38;9.77;;;;;;;;;;5055368;28;20401;-79
2023/04/19 03:39:49;;;;;;;16.33;9.00;;;;;;;;;;5037781;28;20470;-79
2023/04/19 03:42:15;;;;;;;17.70;9.93;;;;;;;;;;5054459;28;20041;-79
2023/04/19 03:44:41;;;;;;;19.85;9.90;;;;;;;;;;5056432;28;20056;-79
2023/04/19 03:47:07;;;;;;;17.08;10.00;;;;;;;;;;5052999;28;20041;-79
2023/04/19 03:49:34;;;;;;;17.25;9.55;;;;;;;;;;5053978;28;20139;-79
2023/04/19 03:52:00;;;;;;;15.73;9.48;;;;;;;;;;5065950;28;20044;-79
2023/04/19 03:54:26;;;;;;;16.42;8.68;;;;;;;;;;5060626;28;20044;-79
2023/04/19 03:56:52;;;;;;;16.92;9.30;;;;;;;;;;5057154;28;20098;-79
2023/04/19 03:59:18;;;;;;;18.60;9.27;;;;;;;;;;5057367;28;20048;-79
2023/04/19 04:01:44;;;;;;;16.33;9.40;;;;;;;;;;5062573;28;20421;-79
2023/04/19 04:04:13;;;;;;;14.18;8.80;;;;;;;;;;5055426;28;20047;-79
2023/04/19 04:06:39;;;;;;;15.15;9.60;;;;;;;;;;5053775;28;20033;-79
2023/04/19 04:09:05;;;;;;;15.63;9.50;;;;;;;;;;5070258;28;20072;-79
2023/04/19 04:11:31;;;;;;;17.25;9.23;;;;;;;;;;5055270;28;20040;-79
2023/04/19 04:13:57;;;;;;;16.50;9.52;;;;;;;;;;5055555;28;20538;-78
2023/04/19 04:16:24;;;;;;;17.90;9.27;;;;;;;;;;5054586;28;20052;-79
2023/04/19 04:18:50;;;;;;;16.67;9.48;;;;;;;;;;5054804;28;20053;-78
2023/04/19 04:21:16;;;;;;;21.63;9.52;;;;;;;;;;5052593;28;20049;-79
2023/04/19 04:23:42;;;;;;;19.17;9.48;;;;;;;;;;5054731;28;20047;-78
2023/04/19 04:26:08;;;;;;;15.50;8.98;;;;;;;;;;5053961;28;20386;-79
2023/04/19 04:28:35;;;;;;;14.70;9.75;;;;;;;;;;5055002;28;20045;-78
2023/04/19 04:31:01;;;;;;;15.55;8.82;;;;;;;;;;5053742;28;20033;-79
2023/04/19 04:33:28;;;;;;;15.18;8.68;;;;;;;;;;5054246;28;20041;-79
2023/04/19 04:35:55;;;;;;;18.17;9.48;;;;;;;;;;5054572;28;20055;-79
2023/04/19 04:38:21;;;;;;;16.75;8.50;;;;;;;;;;5053066;28;20541;-79
2023/04/19 04:40:54;;;;;;;15.23;9.00;;;;;;;;;;5052770;28;20036;-79
2023/04/19 04:43:24;;;;;;;16.20;8.75;;;;;;;;;;5052299;28;20136;-79
2023/04/19 04:45:50;;;;;;;18.35;8.90;;;;;;;;;;5054718;28;20052;-78
2023/04/19 04:48:17;;;;;;;14.95;8.50;;;;;;;;;;5052424;28;20045;-79
2023/04/19 04:50:43;;;;;;;15.45;7.90;;;;;;;;;;5052906;28;20056;-79
2023/04/19 04:53:11;;;;;;;11.82;7.60;;;;;;;;;;5059029;28;20056;-78
2023/04/19 04:55:37;;;;;;;15.60;8.07;;;;;;;;;;5052295;28;20047;-79
2023/04/19 04:58:06;;;;;;;13.93;8.05;;;;;;;;;;5053094;28;20045;-79
2023/04/19 05:00:33;;;;;;;13.35;8.07;;;;;;;;;;5052235;28;20112;-79
2023/04/19 05:03:00;;;;;;;12.38;7.03;;;;;;;;;;5051507;28;20049;-79
2023/04/19 05:05:26;;;;;;;12.45;7.22;;;;;;;;;;5052386;28;20490;-79
2023/04/19 05:07:52;;;;;;;12.18;6.80;;;;;;;;;;5053522;28;20033;-79
2023/04/19 05:10:19;;;;;;;12.15;7.30;;;;;;;;;;5051940;28;20575;-79
2023/04/19 05:12:45;;;;;;;12.88;6.88;;;;;;;;;;5053311;28;20410;-79
2023/04/19 05:15:11;;;;;;;11.68;6.70;;;;;;;;;;5051553;28;20044;-79
2023/04/19 05:17:37;;;;;;;11.15;6.97;;;;;;;;;;5053110;28;20053;-79
2023/04/19 05:20:04;;;;;;;13.20;6.63;;;;;;;;;;5051968;28;20491;-79
2023/04/19 05:22:31;;;;;;;11.52;6.85;;;;;;;;;;5018931;28;20044;-79
2023/04/19 05:24:57;;;;;;;11.25;6.68;;;;;;;;;;5035729;28;20045;-79
2023/04/19 05:27:23;;;;;;;9.32;6.20;;;;;;;;;;5052641;28;20041;-79
2023/04/19 05:29:50;;;;;;;11.63;6.05;;;;;;;;;;5051984;28;20091;-80
2023/04/19 05:32:16;;;;;;;11.80;6.00;;;;;;;;;;5051833;28;20049;-79
2023/04/19 05:34:42;;;;;;;8.85;5.80;;;;;;;;;;5052086;28;20041;-79
2023/04/19 05:37:08;;;;;;;11.10;6.13;;;;;;;;;;5052949;28;20401;-80
2023/04/19 05:39:34;;;;;;;9.10;5.90;;;;;;;;;;5052623;28;20530;-80
2023/04/19 05:42:00;;;;;;;9.70;5.38;;;;;;;;;;5052003;28;20509;-80
2023/04/19 05:44:26;;;;;;;9.60;5.43;;;;;;;;;;5051469;28;20041;-80
2023/04/19 05:46:52;;;;;;;9.30;5.30;;;;;;;;;;5052076;28;20067;-80
2023/04/19 05:49:18;;;;;;;8.68;5.75;;;;;;;;;;5051527;28;20039;-80
2023/04/19 05:51:45;;;;;;;8.82;5.82;;;;;;;;;;5052305;28;20052;-80
2023/04/19 05:54:12;;;;;;;8.75;5.60;;;;;;;;;;5051521;28;20115;-80
2023/04/19 05:56:39;;;;;;;9.75;5.78;;;;;;;;;;5084747;28;20051;-80
2023/04/19 05:59:06;;;;;;;9.15;5.10;;;;;;;;;;5064626;28;20040;-80
2023/04/19 06:01:32;;;;;;;8.75;5.10;;;;;;;;;;5067638;28;20469;-80
2023/04/19 06:03:58;;;;;;;8.40;4.93;;;;;;;;;;5071507;28;20047;-80
2023/04/19 06:06:24;;;;;;;8.88;5.00;;;;;;;;;;5064287;28;20045;-80
2023/04/19 06:08:50;;;;;;;9.15;4.85;;;;;;;;;;5051369;28;20090;-80
2023/04/19 06:11:16;;;;;;;9.10;5.05;;;;;;;;;;5068046;28;20402;-81
2023/04/19 06:13:43;;;;;;;10.02;4.78;;;;;;;;;;5051401;28;20041;-81
2023/04/19 06:16:10;;;;;;;10.55;4.60;;;;;;;;;;5051053;28;20084;-81
2023/04/19 06:18:36;;;;;;;8.68;4.47;;;;;;;;;;5051125;28;20060;-81
2023/04/19 06:21:02;;;;;;;8.88;4.40;;;;;;;;;;5034628;28;20083;-81
2023/04/19 06:23:28;;;;;;;7.72;4.63;;;;;;;;;;5051610;28;20573;-80
2023/04/19 06:25:54;;;;;;;7.32;4.55;;;;;;;;;;5051169;28;20481;-81
2023/04/19 06:28:20;;;;;;;7.35;4.53;;;;;;;;;;5033975;28;20489;-81
2023/04/19 06:30:46;;;;;;;6.90;4.40;;;;;;;;;;5050968;28;20045;-81
2023/04/19 06:33:12;;;;;;;6.50;3.60;;;;;;;;;;5050688;28;20478;-81
2023/04/19 06:35:38;;;;;;;5.50;4.00;;;;;;;;;;5051809;28;20045;-81
2023/04/19 06:38:05;;;;;;;7.30;3.70;;;;;;;;;;5051148;28;20040;-80
2023/04/19 06:40:31;;;;;;;5.75;3.78;;;;;;;;;;5051962;28;20041;-81
2023/04/19 06:42:57;;;;;;;5.20;3.38;;;;;;;;;;5034467;28;20123;-81
2023/04/19 06:45:23;;;;;;;5.40;2.88;;;;;;;;;;5054669;28;20041;-81
2023/04/19 06:47:49;;;;;;;7.40;3.72;;;;;;;;;;5055212;28;20437;-80
2023/04/19 06:50:15;;;;;;;8.27;3.72;;;;;;;;;;5054691;28;20134;-81
2023/04/19 06:52:41;;;;;;;5.05;3.33;;;;;;;;;;5069306;28;20194;-81
2023/04/19 06:55:08;;;;;;;6.57;3.65;;;;;;;;;;5064132;28;20462;-81
2023/04/19 06:57:34;;;;;;;6.28;3.47;;;;;;;;;;5075147;28;20050;-81
2023/04/19 07:00:00;;;;;;;5.25;3.40;;;;;;;;;;5076527;28;20033;-81
2023/04/19 07:02:26;;;;;;;5.50;3.22;;;;;;;;;;5071279;28;20041;-81
2023/04/19 07:04:52;;;;;;;7.05;3.10;;;;;;;;;;5057347;28;20033;-81
2023/04/19 07:07:18;;;;;;;4.65;3.00;;;;;;;;;;5054585;28;20041;-80
2023/04/19 07:09:45;;;;;;;4.93;2.70;;;;;;;;;;5054049;28;20408;-80
2023/04/19 07:12:11;;;;;;;5.07;2.90;;;;;;;;;;5054200;28;20044;-81
2023/04/19 07:14:37;;;;;;;5.10;2.38;;;;;;;;;;5053820;28;20037;-81
2023/04/19 07:17:06;;;;;;;5.78;2.92;;;;;;;;;;5054565;28;20044;-81
2023/04/19 07:19:34;;;;;;;4.72;3.00;;;;;;;;;;5055135;28;20391;-81
2023/04/19 07:22:00;;;;;;;5.47;3.20;;;;;;;;;;5037890;28;20052;-81
2023/04/19 07:24:28;;;;;;;4.80;2.80;;;;;;;;;;5053445;28;20041;-81
2023/04/19 07:26:55;;;;;;;5.75;3.10;;;;;;;;;;5055543;28;20045;-82
2023/04/19 07:29:21;;;;;;;5.30;2.95;;;;;;;;;;5053680;28;20111;-81
2023/04/19 07:31:47;;;;;;;4.60;2.28;;;;;;;;;;5054112;28;20047;-81
2023/04/19 07:34:13;;;;;;;4.82;2.50;;;;;;;;;;5053868;28;20045;-82
2023/04/19 07:36:39;;;;;;;3.67;1.98;;;;;;;;;;5054979;28;20056;-81
2023/04/19 07:39:05;;;;;;;3.55;2.08;;;;;;;;;;5037059;28;20049;-81
2023/04/19 07:41:32;;;;;;;4.93;2.40;;;;;;;;;;5054622;28;20049;-81
2023/04/19 07:43:58;;;;;;;4.53;2.22;;;;;;;;;;5054829;28;20040;-81
2023/04/19 07:46:24;;;;;;;4.22;2.22;;;;;;;;;;5053222;28;20072;-81
2023/04/19 07:48:50;;;;;;;3.92;1.98;;;;;;;;;;5053560;28;20041;-81
2023/04/19 07:51:18;;;;;;;4.90;2.25;;;;;;;;;;5059577;28;20040;-81
2023/04/19 07:53:44;;;;;;;4.20;2.15;;;;;;;;;;5063455;28;20063;-82
2023/04/19 07:56:10;;;;;;;3.13;1.83;;;;;;;;;;5070156;28;20040;-81
2023/04/19 07:58:38;;;;;;;3.55;1.73;;;;;;;;;;5072975;28;20051;-82
2023/04/19 08:01:04;;;;;;;3.80;1.70;;;;;;;;;;5069473;28;20110;-82
2023/04/19 08:03:31;;;;;;;3.20;1.80;;;;;;;;;;5064979;28;20067;-81
2023/04/19 08:05:57;;;;;;;2.47;1.35;;;;;;;;;;5070092;28;20037;-81
2023/04/19 08:08:24;;;;;;;4.45;1.60;;;;;;;;;;5044808;28;20059;-82
2023/04/19 08:10:53;;;;;;;3.47;1.80;;;;;;;;;;5073100;28;20052;-82
2023/04/19 08:13:19;;;;;;;3.25;1.90;;;;;;;;;;5073399;28;20485;-82
2023/04/19 08:15:45;;;;;;;2.95;1.70;;;;;;;;;;5074339;28;20063;-82
2023/04/19 08:18:11;;;;;;;2.72;1.60;;;;;;;;;;5074141;28;20067;-81
2023/04/19 08:20:37;;;;;;;4.35;1.75;;;;;;;;;;5072610;28;20048;-82
2023/04/19 08:23:05;;;;;;;2.30;1.23;;;;;;;;;;5072795;28;20127;-81
2023/04/19 08:25:31;;;;;;;2.92;1.60;;;;;;;;;;5072504;28;20037;-82
2023/04/19 08:27:58;;;;;;;3.53;1.63;;;;;;;;;;5073152;28;20082;-81
2023/04/19 08:30:24;;;;;;;3.53;1.73;;;;;;;;;;5055799;28;20048;-81
2023/04/19 08:32:50;;;;;;;5.07;1.98;;;;;;;;;;5074227;28;20477;-82
2023/04/19 08:35:16;;;;;;;4.05;2.20;;;;;;;;;;5073883;28;20086;-82
2023/04/19 08:37:42;;;;;;;3.20;2.03;;;;;;;;;;5073625;28;20500;-82
2023/04/19 08:40:10;;;;;;;3.47;1.88;;;;;;;;;;5061846;28;20037;-81
2023/04/19 08:42:36;;;;;;;3.80;1.80;;;;;;;;;;5052261;28;20041;-82
2023/04/19 08:45:07;;;;;;;5.50;1.63;;;;;;;;;;5052603;28;20045;-81
2023/04/19 08:47:33;;;;;;;7.53;2.10;;;;;;;;;;5035892;28;20552;-81
2023/04/19 08:50:06;;;;;;;4.68;1.83;;;;;;;;;;5035844;28;20090;-82
2023/04/19 08:52:37;;;;;;;3.55;2.05;;;;;;;;;;5066032;28;20397;-82
2023/04/19 08:55:04;;;;;;;4.75;2.30;;;;;;;;;;5060770;28;20524;-82
2023/04/19 08:57:31;;;;;;;5.25;2.00;;;;;;;;;;5072851;28;20490;-81
2023/04/19 08:59:58;;;;;;;3.78;2.20;;;;;;;;;;5073618;28;20036;-82
2023/04/19 09:02:24;;;;;;;5.45;2.22;;;;;;;;;;5069650;28;20404;-82
2023/04/19 09:04:50;;;;;;;3.28;2.00;;;;;;;;;;5071962;28;20044;-82
2023/04/19 09:07:23;;;;;;;4.90;1.75;;;;;;;;;;5072260;28;20436;-82
2023/04/19 09:10:04;;;;;;;4.22;2.20;;;;;;;;;;5072753;28;20037;-82
2023/04/19 09:12:30;;;;;;;5.10;2.45;;;;;;;;;;5072840;28;20047;-82
2023/04/19 09:14:56;;;;;;;4.13;2.30;;;;;;;;;;5071980;28;20435;-82
2023/04/19 09:17:22;;;;;;;4.85;2.40;;;;;;;;;;5071949;28;20408;-81
2023/04/19 09:19:49;;;;;;;6.70;2.53;;;;;;;;;;5072467;28;20049;-82
2023/04/19 09:22:15;;;;;;;5.00;2.65;;;;;;;;;;5073130;28;20048;-82
2023/04/19 09:24:41;;;;;;;5.00;2.50;;;;;;;;;;5054863;28;20162;-82
2023/04/19 09:27:10;;;;;;;5.15;2.72;;;;;;;;;;5072984;28;20482;-82
2023/04/19 09:29:37;;;;;;;4.13;2.35;;;;;;;;;;5071397;28;20076;-82
2023/04/19 09:32:03;;;;;;;4.55;2.67;;;;;;;;;;5066843;28;20037;-82
2023/04/19 09:34:29;;;;;;;4.85;2.35;;;;;;;;;;5062495;28;20066;-82
2023/04/19 09:36:56;;;;;;;5.63;2.40;;;;;;;;;;5071589;28;20505;-82
2023/04/19 09:39:32;;;;;;;8.32;2.60;;;;;;;;;;5071392;28;20048;-82
2023/04/19 09:41:59;;;;;;;4.82;2.50;;;;;;;;;;5054705;28;20049;-82
2023/04/19 09:44:25;;;;;;;4.85;2.22;;;;;;;;;;5071636;28;20040;-82
2023/04/19 09:46:51;;;;;;;3.22;2.10;;;;;;;;;;5071609;28;20036;-82
2023/04/19 09:49:24;;;;;;;7.68;2.28;;;;;;;;;;5059324;28;20041;-82
2023/04/19 09:51:53;;;;;;;3.55;2.10;;;;;;;;;;5070814;28;20055;-82
2023/04/19 09:54:21;;;;;;;4.30;2.20;;;;;;;;;;5056016;28;20049;-82
2023/04/19 09:56:47;;;;;;;6.15;2.20;;;;;;;;;;5059618;28;20041;-82
2023/04/19 09:59:13;;;;;;;4.38;2.28;;;;;;;;;;5060472;28;20523;-82
2023/04/19 10:01:42;;;;;;;5.22;1.80;;;;;;;;;;5068331;28;20044;-82
2023/04/19 10:04:13;;;;;;;4.18;1.95;;;;;;;;;;5072668;28;20041;-82
2023/04/19 10:06:40;;;;;;;5.63;1.88;;;;;;;;;;5071986;28;20037;-82
2023/04/19 10:09:07;;;;;;;5.50;2.30;;;;;;;;;;5072786;28;20039;-82
2023/04/19 10:11:37;;;;;;;4.55;2.10;;;;;;;;;;5066587;28;20547;-82
2023/04/19 10:14:07;;;;;;;4.45;2.05;;;;;;;;;;5053222;28;20037;-82
2023/04/19 10:16:34;;;;;;;3.30;1.60;;;;;;;;;;5052297;28;20138;-81
2023/04/19 10:19:02;;;;;;;4.60;2.33;;;;;;;;;;5034331;28;20049;-81
2023/04/19 10:21:28;;;;;;;2.90;1.80;;;;;;;;;;5054266;28;20040;-82
2023/04/19 10:23:56;;;;;;;3.97;1.70;;;;;;;;;;5034977;28;20060;-82
2023/04/19 10:26:22;;;;;;;2.20;1.55;;;;;;;;;;5051386;28;20076;-81
2023/04/19 10:28:48;;;;;;;5.10;2.10;;;;;;;;;;5035068;28;20045;-81
2023/04/19 10:31:14;;;;;;;5.28;1.88;;;;;;;;;;5052596;28;20393;-81
2023/04/19 10:33:40;;;;;;;5.93;2.10;;;;;;;;;;5052367;28;20045;-81
2023/04/19 10:36:13;;;;;;;3.28;1.90;;;;;;;;;;5050969;28;20037;-81
2023/04/19 10:38:47;;;;;;;4.47;1.65;;;;;;;;;;5050821;28;20044;-81
2023/04/19 10:41:14;;;;;;;2.72;1.60;;;;;;;;;;5050532;28;20084;-81
2023/04/19 10:43:45;;;;;;;4.40;1.67;;;;;;;;;;5050499;28;20052;-81
2023/04/19 10:46:17;;;;;;;3.78;1.77;;;;;;;;;;5050963;28;20033;-81
2023/04/19 10:48:52;;;;;;;4.22;1.55;;;;;;;;;;5050792;28;20037;-81
2023/04/19 10:51:19;;;;;;;2.60;1.70;;;;;;;;;;5057210;28;20037;-81
2023/04/19 10:53:47;;;;;;;2.72;1.10;;;;;;;;;;5060169;28;20174;-81
2023/04/19 10:56:13;;;;;;;3.50;1.75;;;;;;;;;;5085341;28;20093;-80
2023/04/19 10:59:21;;;;;;;3.72;1.95;;;;;;;;;;5070781;28;20044;-81
2023/04/19 11:01:51;;;;;;;5.90;2.40;;;;;;;;;;5028690;28;20045;-80
2023/04/19 11:04:19;;;;;;;3.60;1.83;;;;;;;;;;5033361;28;20049;-80
2023/04/19 11:06:51;;;;;;;5.13;1.85;;;;;;;;;;5029074;28;20042;-81
2023/04/19 11:09:37;;;;;;;3.60;1.88;;;;;;;;;;5044950;28;20552;-81
2023/04/19 11:12:03;;;;;;;;;;;;;;;;;;5040717;28;20048;-81
2023/04/19 11:14:31;;;;;;;6.03;1.90;;;;;;;;;;5050510;28;19999;-81
2023/04/19 11:16:57;;;;;;;3.47;1.50;;;;;;;;;;5050186;28;20064;-81
2023/04/19 11:19:24;;;;;;;2.47;1.30;;;;;;;;;;5050525;28;20572;-80
2023/04/19 11:21:50;;;;;;;4.60;1.48;;;;;;;;;;5033312;28;20044;-80
2023/04/19 11:24:19;;;;;;;2.72;1.38;;;;;;;;;;5051676;28;20037;-80
2023/04/19 11:26:46;;;;;;;3.53;1.48;;;;;;;;;;5051230;28;20081;-81
2023/04/19 11:29:12;;;;;;;2.33;1.30;;;;;;;;;;5051841;28;20044;-81
2023/04/19 11:31:38;;;;;;;3.45;1.50;;;;;;;;;;5053250;28;20041;-80
2023/04/19 11:34:04;;;;;;;4.18;1.45;;;;;;;;;;5054102;28;20059;-81
2023/04/19 11:36:31;;;;;;;4.20;1.70;;;;;;;;;;5054219;28;20049;-81
2023/04/19 11:38:57;;;;;;;4.10;1.02;;;;;;;;;;5055294;28;20037;-80
2023/04/19 11:41:23;;;;;;;4.07;1.70;;;;;;;;;;5055141;28;20044;-81
2023/04/19 11:43:49;;;;;;;5.28;1.90;;;;;;;;;;5054698;28;20041;-81
2023/04/19 11:46:16;;;;;;;3.92;1.30;;;;;;;;;;5054205;28;20039;-81
2023/04/19 11:48:52;;;;;;;7.82;1.50;;;;;;;;;;5054078;28;20048;-80
2023/04/19 11:51:18;;;;;;;3.97;1.45;;;;;;;;;;5058996;28;20040;-81
2023/04/19 11:53:45;;;;;;;3.10;1.35;;;;;;;;;;5045851;28;20102;-81
2023/04/19 11:56:11;;;;;;;2.67;1.25;;;;;;;;;;5056951;28;20052;-81
2023/04/19 11:58:44;;;;;;;4.78;1.40;;;;;;;;;;5074270;28;20093;-81
2023/04/19 12:01:18;;;;;;;4.40;1.58;;;;;;;;;;5069818;28;20029;-81
2023/04/19 12:03:46;;;;;;;3.35;1.42;;;;;;;;;;5074256;28;20049;-80
2023/04/19 12:06:13;;;;;;;4.13;1.77;;;;;;;;;;5073701;28;20063;-81
2023/04/19 12:08:42;;;;;;;3.65;1.40;;;;;;;;;;5073928;28;20100;-81
2023/04/19 12:11:09;;;;;;;6.15;1.35;;;;;;;;;;5054746;28;20037;-81
2023/04/19 12:13:35;;;;;;;5.32;1.27;;;;;;;;;;5054485;28;20044;-81
2023/04/19 12:16:02;;;;;;;2.95;1.30;;;;;;;;;;5052995;28;20055;-81
2023/04/19 12:18:28;;;;;;;2.63;1.40;;;;;;;;;;5053145;28;20057;-81
2023/04/19 12:20:54;;;;;;;4.90;1.38;;;;;;;;;;5053298;28;20052;-81
2023/04/19 12:23:21;;;;;;;4.20;1.50;;;;;;;;;;5069597;28;20041;-81
2023/04/19 12:25:48;;;;;;;4.95;1.40;;;;;;;;;;5054216;28;20029;-81
2023/04/19 12:28:15;;;;;;;7.88;1.50;;;;;;;;;;5052424;28;20067;-81
2023/04/19 12:30:42;;;;;;;4.65;1.65;;;;;;;;;;5054366;28;20049;-81
2023/04/19 12:33:08;;;;;;;7.28;1.48;;;;;;;;;;5052501;28;20112;-81
2023/04/19 12:35:35;;;;;;;3.30;1.45;;;;;;;;;;5052748;28;20098;-81
2023/04/19 12:38:01;;;;;;;5.10;1.90;;;;;;;;;;5053933;28;20114;-81
2023/04/19 12:40:28;;;;;;;2.67;1.63;;;;;;;;;;5053204;28;20405;-80
2023/04/19 12:42:54;;;;;;;5.05;1.35;;;;;;;;;;5051921;28;20037;-81
2023/04/19 12:45:21;;;;;;;3.60;1.88;;;;;;;;;;5069693;28;20071;-81
2023/04/19 12:47:47;;;;;;;2.92;1.80;;;;;;;;;;5054234;28;20033;-81
2023/04/19 12:50:15;;;;;;;5.05;2.10;;;;;;;;;;5053630;28;20115;-81
2023/04/19 12:52:41;;;;;;;4.00;2.25;;;;;;;;;;5070541;28;20044;-80
2023/04/19 12:55:08;;;;;;;6.10;2.20;;;;;;;;;;5072490;28;20040;-81
2023/04/19 12:57:34;;;;;;;3.20;2.20;;;;;;;;;;5072404;28;20048;-81
2023/04/19 13:00:00;;;;;;;3.38;2.20;;;;;;;;;;5072951;28;20047;-80
2023/04/19 13:02:26;;;;;;;3.30;1.90;;;;;;;;;;5070144;28;20074;-81
2023/04/19 13:04:52;;;;;;;5.28;2.30;;;;;;;;;;5073964;28;20094;-80
2023/04/19 13:07:18;;;;;;;5.53;2.17;;;;;;;;;;5073842;28;20051;-81
2023/04/19 13:09:44;;;;;;;5.70;2.20;;;;;;;;;;5074228;28;20032;-81
2023/04/19 13:12:11;;;;;;;4.93;2.45;;;;;;;;;;5072737;28;20044;-80
2023/04/19 13:14:37;;;;;;;7.45;2.20;;;;;;;;;;5053008;28;20088;-80
2023/04/19 13:17:03;;;;;;;4.30;2.60;;;;;;;;;;5052531;28;20467;-80
2023/04/19 13:19:29;;;;;;;5.60;2.67;;;;;;;;;;5051838;28;20426;-80
2023/04/19 13:21:56;;;;;;;5.85;2.85;;;;;;;;;;5053286;28;20081;-80
2023/04/19 13:24:22;;;;;;;7.40;2.47;;;;;;;;;;5069189;28;20037;-81
2023/04/19 13:26:48;;;;;;;5.13;2.50;;;;;;;;;;5052591;28;20044;-80
2023/04/19 13:29:14;;;;;;;5.57;2.58;;;;;;;;;;5051851;28;20045;-80
2023/04/19 13:31:42;;;;;;;7.70;2.88;;;;;;;;;;5035839;28;20482;-80
2023/04/19 13:34:08;;;;;;;7.88;2.78;;;;;;;;;;5068461;28;20501;-80
2023/04/19 13:36:34;;;;;;;5.22;2.55;;;;;;;;;;5051969;28;20485;-80
2023/04/19 13:39:00;;;;;;;8.27;2.80;;;;;;;;;;5052986;28;20456;-80
2023/04/19 13:41:26;;;;;;;4.22;2.40;;;;;;;;;;5051847;28;20432;-80
2023/04/19 13:43:52;;;;;;;6.85;2.55;;;;;;;;;;5052466;28;20041;-81
2023/04/19 13:46:18;;;;;;;4.90;2.55;;;;;;;;;;5052329;28;20052;-80
2023/04/19 13:48:44;;;;;;;6.55;2.65;;;;;;;;;;5051358;28;20124;-80
2023/04/19 13:51:10;;;;;;;5.90;2.78;;;;;;;;;;5052168;28;20034;-81
2023/04/19 13:53:36;;;;;;;4.18;2.65;;;;;;;;;;5061252;28;20055;-80
2023/04/19 13:56:03;;;;;;;5.00;2.53;;;;;;;;;;5071307;28;20432;-80
2023/04/19 13:58:29;;;;;;;6.72;2.13;;;;;;;;;;5072341;28;20068;-80
2023/04/19 14:00:56;;;;;;;4.28;2.10;;;;;;;;;;5067336;28;20044;-80
2023/04/19 14:03:22;;;;;;;4.43;2.22;;;;;;;;;;5070969;28;20389;-80
2023/04/19 14:05:48;;;;;;;4.25;2.38;;;;;;;;;;5072495;28;20044;-80
2023/04/19 14:08:14;;;;;;;3.30;2.10;;;;;;;;;;5070873;28;20444;-80
2023/04/19 14:10:40;;;;;;;5.90;2.78;;;;;;;;;;5071464;28;20393;-80
2023/04/19 14:13:06;;;;;;;4.47;2.40;;;;;;;;;;5071805;28;20114;-80
2023/04/19 14:15:32;;;;;;;4.97;2.75;;;;;;;;;;5070828;28;20055;-81
2023/04/19 14:17:59;;;;;;;6.20;2.88;;;;;;;;;;5040210;28;20509;-80
2023/04/19 14:20:25;;;;;;;5.10;2.83;;;;;;;;;;5071855;28;20083;-80
2023/04/19 14:22:54;;;;;;;4.30;2.50;;;;;;;;;;5070966;28;20405;-80
2023/04/19 14:25:20;;;;;;;8.43;2.75;;;;;;;;;;5053996;28;20044;-80
2023/04/19 14:27:46;;;;;;;4.90;2.67;;;;;;;;;;5072272;28;20036;-80
2023/04/19 14:30:12;;;;;;;6.18;2.70;;;;;;;;;;5070373;28;20401;-80
2023/04/19 14:32:38;;;;;;;4.97;2.63;;;;;;;;;;5072043;28;20093;-81
2023/04/19 14:35:04;;;;;;;4.97;2.47;;;;;;;;;;5056575;28;20049;-80